Terminal Aerodrome Forecast
Issued by NWS

Home | Current Version | Previous Version | Text Only | Print | Product List | Glossary On
Versions: 1 2 3 4 5 6 7 8 9 10 11 12 13 14 15 16 17 18 19 20 21 22 23 24 25 26 27 28
000
FTUS46 KOTX 221136
TAFSFF
TAF
KSFF 221136Z 2212/2312 11005KT P6SM -SHRA BKN080 OVC100
     FM221600 08004KT P6SM VCSH SCT040 BKN060 OVC080
     FM230200 03003KT P6SM SCT050 SCT100
     FM230800 03003KT P6SM -SHRA BKN080 OVC100=

USA.gov is the U.S. government's official web portal to all federal, state and local government web resources and services.